sensor_id;sensor_type;location;lat;lon;timestamp;P1;durP1;ratioP1;P2;durP2;ratioP2
60847;SDS011;46681;47.696;9.140;2023-07-31T00:00:37;1.47;;;1.37;;
60847;SDS011;46681;47.696;9.140;2023-07-31T00:03:02;1.70;;;1.60;;
60847;SDS011;46681;47.696;9.140;2023-07-31T00:05:28;1.20;;;1.20;;
60847;SDS011;46681;47.696;9.140;2023-07-31T00:07:53;1.60;;;1.50;;
60847;SDS011;46681;47.696;9.140;2023-07-31T00:10:19;2.53;;;1.50;;
60847;SDS011;46681;47.696;9.140;2023-07-31T00:12:45;1.30;;;1.20;;
60847;SDS011;46681;47.696;9.140;2023-07-31T00:15:11;1.37;;;1.37;;
60847;SDS011;46681;47.696;9.140;2023-07-31T00:17:40;1.80;;;1.50;;
60847;SDS011;46681;47.696;9.140;2023-07-31T00:20:06;1.40;;;1.33;;
60847;SDS011;46681;47.696;9.140;2023-07-31T00:22:34;1.20;;;1.20;;
60847;SDS011;46681;47.696;9.140;2023-07-31T00:25:00;2.20;;;1.20;;
60847;SDS011;46681;47.696;9.140;2023-07-31T00:27:26;1.40;;;1.30;;
60847;SDS011;46681;47.696;9.140;2023-07-31T00:29:51;2.37;;;1.70;;
60847;SDS011;46681;47.696;9.140;2023-07-31T00:32:17;1.77;;;1.50;;
60847;SDS011;46681;47.696;9.140;2023-07-31T00:34:42;1.83;;;1.73;;
60847;SDS011;46681;47.696;9.140;2023-07-31T00:37:09;1.93;;;1.73;;
60847;SDS011;46681;47.696;9.140;2023-07-31T00:39:36;2.30;;;1.63;;
60847;SDS011;46681;47.696;9.140;2023-07-31T00:42:02;1.50;;;1.43;;
60847;SDS011;46681;47.696;9.140;2023-07-31T00:44:28;1.50;;;1.40;;
60847;SDS011;46681;47.696;9.140;2023-07-31T00:46:56;1.70;;;1.50;;
60847;SDS011;46681;47.696;9.140;2023-07-31T00:49:22;1.77;;;1.67;;
60847;SDS011;46681;47.696;9.140;2023-07-31T00:51:48;1.83;;;1.57;;
60847;SDS011;46681;47.696;9.140;2023-07-31T00:54:13;2.73;;;1.40;;
60847;SDS011;46681;47.696;9.140;2023-07-31T00:56:41;2.00;;;1.50;;
60847;SDS011;46681;47.696;9.140;2023-07-31T00:59:09;1.80;;;1.30;;
60847;SDS011;46681;47.696;9.140;2023-07-31T01:01:37;1.80;;;1.70;;
60847;SDS011;46681;47.696;9.140;2023-07-31T01:04:02;1.60;;;1.50;;
60847;SDS011;46681;47.696;9.140;2023-07-31T01:06:40;2.10;;;1.50;;
60847;SDS011;46681;47.696;9.140;2023-07-31T01:12:26;2.20;;;1.43;;
60847;SDS011;46681;47.696;9.140;2023-07-31T01:17:27;1.53;;;1.43;;
60847;SDS011;46681;47.696;9.140;2023-07-31T01:19:53;1.70;;;1.60;;
60847;SDS011;46681;47.696;9.140;2023-07-31T01:25:00;1.53;;;1.43;;
60847;SDS011;46681;47.696;9.140;2023-07-31T01:27:39;2.30;;;1.40;;
60847;SDS011;46681;47.696;9.140;2023-07-31T01:30:16;2.13;;;1.80;;
60847;SDS011;46681;47.696;9.140;2023-07-31T01:32:47;1.93;;;1.50;;
60847;SDS011;46681;47.696;9.140;2023-07-31T01:35:14;1.87;;;1.50;;
60847;SDS011;46681;47.696;9.140;2023-07-31T01:37:40;2.97;;;1.70;;
60847;SDS011;46681;47.696;9.140;2023-07-31T01:40:06;1.73;;;1.50;;
60847;SDS011;46681;47.696;9.140;2023-07-31T01:42:34;1.40;;;1.30;;
60847;SDS011;46681;47.696;9.140;2023-07-31T01:45:00;2.30;;;1.53;;
60847;SDS011;46681;47.696;9.140;2023-07-31T01:47:25;2.37;;;1.60;;
60847;SDS011;46681;47.696;9.140;2023-07-31T01:49:51;1.50;;;1.40;;
60847;SDS011;46681;47.696;9.140;2023-07-31T01:52:16;1.60;;;1.40;;
60847;SDS011;46681;47.696;9.140;2023-07-31T01:54:42;2.60;;;1.60;;
60847;SDS011;46681;47.696;9.140;2023-07-31T01:57:09;1.50;;;1.40;;
60847;SDS011;46681;47.696;9.140;2023-07-31T01:59:36;1.60;;;1.30;;
60847;SDS011;46681;47.696;9.140;2023-07-31T02:02:02;1.40;;;1.30;;
60847;SDS011;46681;47.696;9.140;2023-07-31T02:04:27;1.47;;;1.37;;
60847;SDS011;46681;47.696;9.140;2023-07-31T02:06:53;4.57;;;1.50;;
60847;SDS011;46681;47.696;9.140;2023-07-31T02:09:18;1.57;;;1.47;;
60847;SDS011;46681;47.696;9.140;2023-07-31T02:11:44;1.70;;;1.20;;
60847;SDS011;46681;47.696;9.140;2023-07-31T02:14:09;2.83;;;1.40;;
60847;SDS011;46681;47.696;9.140;2023-07-31T02:16:37;1.80;;;1.70;;
60847;SDS011;46681;47.696;9.140;2023-07-31T02:19:04;1.60;;;1.50;;
60847;SDS011;46681;47.696;9.140;2023-07-31T02:21:30;1.53;;;1.10;;
60847;SDS011;46681;47.696;9.140;2023-07-31T02:23:55;1.53;;;1.40;;
60847;SDS011;46681;47.696;9.140;2023-07-31T02:26:21;1.40;;;1.30;;
60847;SDS011;46681;47.696;9.140;2023-07-31T02:28:46;1.40;;;1.30;;
60847;SDS011;46681;47.696;9.140;2023-07-31T02:31:11;1.50;;;1.37;;
60847;SDS011;46681;47.696;9.140;2023-07-31T02:33:37;1.50;;;1.40;;
60847;SDS011;46681;47.696;9.140;2023-07-31T02:36:02;2.00;;;1.23;;
60847;SDS011;46681;47.696;9.140;2023-07-31T02:38:30;1.60;;;1.50;;
60847;SDS011;46681;47.696;9.140;2023-07-31T02:40:57;1.93;;;1.40;;
60847;SDS011;46681;47.696;9.140;2023-07-31T02:43:23;1.50;;;1.40;;
60847;SDS011;46681;47.696;9.140;2023-07-31T02:45:51;1.70;;;1.50;;
60847;SDS011;46681;47.696;9.140;2023-07-31T02:48:17;2.37;;;1.80;;
60847;SDS011;46681;47.696;9.140;2023-07-31T02:50:43;1.80;;;1.30;;
60847;SDS011;46681;47.696;9.140;2023-07-31T02:53:09;1.60;;;1.50;;
60847;SDS011;46681;47.696;9.140;2023-07-31T02:55:34;1.50;;;1.40;;
60847;SDS011;46681;47.696;9.140;2023-07-31T02:58:00;1.50;;;1.40;;
60847;SDS011;46681;47.696;9.140;2023-07-31T03:00:25;1.37;;;1.27;;
60847;SDS011;46681;47.696;9.140;2023-07-31T03:02:53;1.20;;;1.10;;
60847;SDS011;46681;47.696;9.140;2023-07-31T03:05:19;1.43;;;1.33;;
60847;SDS011;46681;47.696;9.140;2023-07-31T03:07:44;1.10;;;1.10;;
60847;SDS011;46681;47.696;9.140;2023-07-31T03:10:11;1.60;;;1.50;;
60847;SDS011;46681;47.696;9.140;2023-07-31T03:12:37;1.30;;;1.20;;
60847;SDS011;46681;47.696;9.140;2023-07-31T03:15:03;2.13;;;1.60;;
60847;SDS011;46681;47.696;9.140;2023-07-31T03:17:28;1.40;;;1.30;;
60847;SDS011;46681;47.696;9.140;2023-07-31T03:19:54;1.67;;;1.57;;
60847;SDS011;46681;47.696;9.140;2023-07-31T03:22:19;1.60;;;1.50;;
60847;SDS011;46681;47.696;9.140;2023-07-31T03:24:45;1.30;;;1.20;;
60847;SDS011;46681;47.696;9.140;2023-07-31T03:27:11;1.47;;;1.40;;
60847;SDS011;46681;47.696;9.140;2023-07-31T03:29:37;1.30;;;1.30;;
60847;SDS011;46681;47.696;9.140;2023-07-31T03:32:02;1.20;;;1.10;;
60847;SDS011;46681;47.696;9.140;2023-07-31T03:34:28;1.57;;;1.30;;
60847;SDS011;46681;47.696;9.140;2023-07-31T03:36:54;3.10;;;1.70;;
60847;SDS011;46681;47.696;9.140;2023-07-31T03:39:20;1.97;;;1.50;;
60847;SDS011;46681;47.696;9.140;2023-07-31T03:41:45;1.60;;;1.50;;
60847;SDS011;46681;47.696;9.140;2023-07-31T03:44:11;1.50;;;1.40;;
60847;SDS011;46681;47.696;9.140;2023-07-31T03:46:38;1.27;;;1.17;;
60847;SDS011;46681;47.696;9.140;2023-07-31T03:49:08;1.57;;;1.47;;
60847;SDS011;46681;47.696;9.140;2023-07-31T03:51:34;1.37;;;1.23;;
60847;SDS011;46681;47.696;9.140;2023-07-31T03:54:02;1.50;;;1.40;;
60847;SDS011;46681;47.696;9.140;2023-07-31T03:56:29;3.03;;;1.60;;
60847;SDS011;46681;47.696;9.140;2023-07-31T03:58:54;1.77;;;1.53;;
60847;SDS011;46681;47.696;9.140;2023-07-31T04:01:21;1.80;;;1.40;;
60847;SDS011;46681;47.696;9.140;2023-07-31T04:03:47;1.97;;;1.50;;
60847;SDS011;46681;47.696;9.140;2023-07-31T04:06:12;2.03;;;1.50;;
60847;SDS011;46681;47.696;9.140;2023-07-31T04:08:41;1.70;;;1.60;;
60847;SDS011;46681;47.696;9.140;2023-07-31T04:11:07;2.23;;;1.20;;
60847;SDS011;46681;47.696;9.140;2023-07-31T04:13:34;1.30;;;1.20;;
60847;SDS011;46681;47.696;9.140;2023-07-31T04:15:59;1.57;;;1.47;;
60847;SDS011;46681;47.696;9.140;2023-07-31T04:18:25;1.37;;;1.27;;
60847;SDS011;46681;47.696;9.140;2023-07-31T04:20:50;1.83;;;1.37;;
60847;SDS011;46681;47.696;9.140;2023-07-31T04:23:16;1.47;;;1.37;;
60847;SDS011;46681;47.696;9.140;2023-07-31T04:25:41;1.20;;;1.20;;
60847;SDS011;46681;47.696;9.140;2023-07-31T04:28:07;2.10;;;1.47;;
60847;SDS011;46681;47.696;9.140;2023-07-31T04:30:34;1.30;;;1.20;;
60847;SDS011;46681;47.696;9.140;2023-07-31T04:33:00;1.30;;;1.30;;
60847;SDS011;46681;47.696;9.140;2023-07-31T04:35:28;2.80;;;1.40;;
60847;SDS011;46681;47.696;9.140;2023-07-31T04:37:55;1.77;;;1.40;;
60847;SDS011;46681;47.696;9.140;2023-07-31T04:40:21;1.10;;;1.10;;
60847;SDS011;46681;47.696;9.140;2023-07-31T04:42:46;2.17;;;1.67;;
60847;SDS011;46681;47.696;9.140;2023-07-31T04:45:14;1.67;;;1.50;;
60847;SDS011;46681;47.696;9.140;2023-07-31T04:47:43;1.60;;;1.50;;
60847;SDS011;46681;47.696;9.140;2023-07-31T04:50:11;1.30;;;1.20;;
60847;SDS011;46681;47.696;9.140;2023-07-31T04:52:37;3.20;;;1.27;;
60847;SDS011;46681;47.696;9.140;2023-07-31T04:55:07;1.23;;;1.23;;
60847;SDS011;46681;47.696;9.140;2023-07-31T04:57:35;1.87;;;1.43;;
60847;SDS011;46681;47.696;9.140;2023-07-31T05:00:02;1.70;;;1.43;;
60847;SDS011;46681;47.696;9.140;2023-07-31T05:02:30;2.40;;;1.50;;
60847;SDS011;46681;47.696;9.140;2023-07-31T05:04:55;2.47;;;1.70;;
60847;SDS011;46681;47.696;9.140;2023-07-31T05:07:21;5.07;;;1.80;;
60847;SDS011;46681;47.696;9.140;2023-07-31T05:09:46;2.23;;;1.70;;
60847;SDS011;46681;47.696;9.140;2023-07-31T05:12:12;4.13;;;1.83;;
60847;SDS011;46681;47.696;9.140;2023-07-31T05:14:37;3.03;;;1.70;;
60847;SDS011;46681;47.696;9.140;2023-07-31T05:17:03;3.73;;;1.90;;
60847;SDS011;46681;47.696;9.140;2023-07-31T05:19:36;1.70;;;1.60;;
60847;SDS011;46681;47.696;9.140;2023-07-31T05:22:06;2.50;;;1.60;;
60847;SDS011;46681;47.696;9.140;2023-07-31T05:24:34;5.27;;;1.67;;
60847;SDS011;46681;47.696;9.140;2023-07-31T05:27:04;1.50;;;1.40;;
60847;SDS011;46681;47.696;9.140;2023-07-31T05:29:29;1.47;;;1.33;;
60847;SDS011;46681;47.696;9.140;2023-07-31T05:32:00;3.87;;;1.50;;
60847;SDS011;46681;47.696;9.140;2023-07-31T05:34:27;3.87;;;1.80;;
60847;SDS011;46681;47.696;9.140;2023-07-31T05:36:53;4.13;;;1.90;;
60847;SDS011;46681;47.696;9.140;2023-07-31T05:39:18;4.03;;;1.67;;
60847;SDS011;46681;47.696;9.140;2023-07-31T05:41:44;4.23;;;1.50;;
60847;SDS011;46681;47.696;9.140;2023-07-31T05:44:09;2.60;;;1.40;;
60847;SDS011;46681;47.696;9.140;2023-07-31T05:46:35;3.30;;;1.80;;
60847;SDS011;46681;47.696;9.140;2023-07-31T05:49:06;2.33;;;1.50;;
60847;SDS011;46681;47.696;9.140;2023-07-31T05:51:32;2.53;;;1.53;;
60847;SDS011;46681;47.696;9.140;2023-07-31T05:54:06;4.30;;;1.63;;
60847;SDS011;46681;47.696;9.140;2023-07-31T05:56:32;2.13;;;1.73;;
60847;SDS011;46681;47.696;9.140;2023-07-31T05:58:59;4.23;;;1.57;;
60847;SDS011;46681;47.696;9.140;2023-07-31T06:01:26;1.83;;;1.60;;
60847;SDS011;46681;47.696;9.140;2023-07-31T06:03:52;2.17;;;1.60;;
60847;SDS011;46681;47.696;9.140;2023-07-31T06:06:18;2.10;;;1.70;;
60847;SDS011;46681;47.696;9.140;2023-07-31T06:08:49;3.03;;;1.60;;
60847;SDS011;46681;47.696;9.140;2023-07-31T06:11:16;2.90;;;1.70;;
60847;SDS011;46681;47.696;9.140;2023-07-31T06:13:42;1.73;;;1.23;;
60847;SDS011;46681;47.696;9.140;2023-07-31T06:16:08;6.80;;;1.80;;
60847;SDS011;46681;47.696;9.140;2023-07-31T06:18:41;2.00;;;1.73;;
60847;SDS011;46681;47.696;9.140;2023-07-31T06:21:06;5.80;;;1.90;;
60847;SDS011;46681;47.696;9.140;2023-07-31T06:23:34;2.07;;;1.43;;
60847;SDS011;46681;47.696;9.140;2023-07-31T06:26:00;1.80;;;1.30;;
60847;SDS011;46681;47.696;9.140;2023-07-31T06:28:29;1.83;;;1.60;;
60847;SDS011;46681;47.696;9.140;2023-07-31T06:30:57;2.13;;;1.53;;
60847;SDS011;46681;47.696;9.140;2023-07-31T06:33:27;1.80;;;1.57;;
60847;SDS011;46681;47.696;9.140;2023-07-31T06:36:10;2.33;;;1.60;;
60847;SDS011;46681;47.696;9.140;2023-07-31T06:38:41;1.97;;;1.80;;
60847;SDS011;46681;47.696;9.140;2023-07-31T06:41:07;1.97;;;1.50;;
60847;SDS011;46681;47.696;9.140;2023-07-31T06:43:37;1.90;;;1.33;;
60847;SDS011;46681;47.696;9.140;2023-07-31T06:46:07;2.37;;;1.50;;
60847;SDS011;46681;47.696;9.140;2023-07-31T06:48:35;3.27;;;1.60;;
60847;SDS011;46681;47.696;9.140;2023-07-31T06:51:06;1.83;;;1.40;;
60847;SDS011;46681;47.696;9.140;2023-07-31T06:53:32;1.77;;;1.43;;
60847;SDS011;46681;47.696;9.140;2023-07-31T06:56:00;3.60;;;1.63;;
60847;SDS011;46681;47.696;9.140;2023-07-31T06:58:31;2.50;;;1.50;;
60847;SDS011;46681;47.696;9.140;2023-07-31T07:01:00;2.60;;;1.50;;
60847;SDS011;46681;47.696;9.140;2023-07-31T07:03:28;1.97;;;1.53;;
60847;SDS011;46681;47.696;9.140;2023-07-31T07:05:53;1.63;;;1.40;;
60847;SDS011;46681;47.696;9.140;2023-07-31T07:08:21;1.57;;;1.47;;
60847;SDS011;46681;47.696;9.140;2023-07-31T07:10:55;1.67;;;1.57;;
60847;SDS011;46681;47.696;9.140;2023-07-31T07:13:26;1.30;;;1.20;;
60847;SDS011;46681;47.696;9.140;2023-07-31T07:16:19;1.57;;;1.40;;
60847;SDS011;46681;47.696;9.140;2023-07-31T07:18:46;1.87;;;1.57;;
60847;SDS011;46681;47.696;9.140;2023-07-31T07:24:42;2.40;;;1.50;;
60847;SDS011;46681;47.696;9.140;2023-07-31T07:27:13;1.70;;;1.60;;
60847;SDS011;46681;47.696;9.140;2023-07-31T07:30:00;1.30;;;1.20;;
60847;SDS011;46681;47.696;9.140;2023-07-31T07:35:41;2.00;;;1.67;;
60847;SDS011;46681;47.696;9.140;2023-07-31T07:38:07;4.10;;;2.00;;
60847;SDS011;46681;47.696;9.140;2023-07-31T07:40:50;4.57;;;1.70;;
60847;SDS011;46681;47.696;9.140;2023-07-31T07:49:04;2.50;;;1.40;;
60847;SDS011;46681;47.696;9.140;2023-07-31T07:51:42;1.60;;;1.50;;
60847;SDS011;46681;47.696;9.140;2023-07-31T07:54:11;2.27;;;1.47;;
60847;SDS011;46681;47.696;9.140;2023-07-31T07:56:46;2.13;;;1.63;;
60847;SDS011;46681;47.696;9.140;2023-07-31T07:59:28;1.87;;;1.43;;
60847;SDS011;46681;47.696;9.140;2023-07-31T08:01:58;2.97;;;1.57;;
60847;SDS011;46681;47.696;9.140;2023-07-31T08:07:39;1.63;;;1.53;;
60847;SDS011;46681;47.696;9.140;2023-07-31T08:10:22;5.53;;;1.93;;
60847;SDS011;46681;47.696;9.140;2023-07-31T08:13:00;1.60;;;1.50;;
60847;SDS011;46681;47.696;9.140;2023-07-31T08:15:33;2.10;;;1.50;;
60847;SDS011;46681;47.696;9.140;2023-07-31T08:18:10;1.93;;;1.60;;
60847;SDS011;46681;47.696;9.140;2023-07-31T08:20:42;2.37;;;1.50;;
60847;SDS011;46681;47.696;9.140;2023-07-31T08:23:33;1.60;;;1.50;;
60847;SDS011;46681;47.696;9.140;2023-07-31T08:26:15;3.37;;;1.57;;
60847;SDS011;46681;47.696;9.140;2023-07-31T08:28:51;1.77;;;1.67;;
60847;SDS011;46681;47.696;9.140;2023-07-31T08:31:18;1.40;;;1.20;;
60847;SDS011;46681;47.696;9.140;2023-07-31T08:33:50;1.90;;;1.30;;
60847;SDS011;46681;47.696;9.140;2023-07-31T08:36:38;1.77;;;1.33;;
60847;SDS011;46681;47.696;9.140;2023-07-31T08:39:27;2.00;;;1.47;;
60847;SDS011;46681;47.696;9.140;2023-07-31T08:41:59;1.53;;;1.43;;
60847;SDS011;46681;47.696;9.140;2023-07-31T08:44:42;1.83;;;1.23;;
60847;SDS011;46681;47.696;9.140;2023-07-31T08:47:47;1.77;;;1.30;;
60847;SDS011;46681;47.696;9.140;2023-07-31T08:50:28;2.20;;;1.23;;
60847;SDS011;46681;47.696;9.140;2023-07-31T08:53:09;1.80;;;1.40;;
60847;SDS011;46681;47.696;9.140;2023-07-31T08:55:58;2.10;;;1.60;;
60847;SDS011;46681;47.696;9.140;2023-07-31T08:58:41;2.40;;;1.43;;
60847;SDS011;46681;47.696;9.140;2023-07-31T09:01:12;2.60;;;1.60;;
60847;SDS011;46681;47.696;9.140;2023-07-31T09:04:09;1.03;;;1.03;;
60847;SDS011;46681;47.696;9.140;2023-07-31T09:06:57;1.30;;;1.20;;
60847;SDS011;46681;47.696;9.140;2023-07-31T09:09:39;3.13;;;1.43;;
60847;SDS011;46681;47.696;9.140;2023-07-31T09:12:06;1.07;;;1.03;;
60847;SDS011;46681;47.696;9.140;2023-07-31T09:18:06;1.43;;;1.30;;
60847;SDS011;46681;47.696;9.140;2023-07-31T09:24:24;2.60;;;1.33;;
60847;SDS011;46681;47.696;9.140;2023-07-31T09:30:20;1.83;;;1.30;;
60847;SDS011;46681;47.696;9.140;2023-07-31T09:33:09;1.90;;;1.43;;
60847;SDS011;46681;47.696;9.140;2023-07-31T09:36:02;2.67;;;1.60;;
60847;SDS011;46681;47.696;9.140;2023-07-31T09:44:43;1.77;;;1.30;;
60847;SDS011;46681;47.696;9.140;2023-07-31T09:57:10;2.13;;;1.57;;
60847;SDS011;46681;47.696;9.140;2023-07-31T10:15:49;2.40;;;1.30;;
60847;SDS011;46681;47.696;9.140;2023-07-31T11:14:04;1.53;;;1.10;;
60847;SDS011;46681;47.696;9.140;2023-07-31T12:52:01;1.67;;;1.10;;
60847;SDS011;46681;47.696;9.140;2023-07-31T13:25:33;1.27;;;1.20;;
60847;SDS011;46681;47.696;9.140;2023-07-31T13:34:52;1.40;;;1.30;;
60847;SDS011;46681;47.696;9.140;2023-07-31T14:29:52;1.67;;;1.57;;
60847;SDS011;46681;47.696;9.140;2023-07-31T14:51:16;5.60;;;2.00;;
60847;SDS011;46681;47.696;9.140;2023-07-31T15:09:49;3.63;;;2.00;;
60847;SDS011;46681;47.696;9.140;2023-07-31T15:31:32;2.33;;;2.07;;
60847;SDS011;46681;47.696;9.140;2023-07-31T15:52:04;2.90;;;2.17;;
60847;SDS011;46681;47.696;9.140;2023-07-31T15:54:54;2.70;;;2.17;;
60847;SDS011;46681;47.696;9.140;2023-07-31T16:28:13;3.03;;;2.20;;
60847;SDS011;46681;47.696;9.140;2023-07-31T16:40:04;3.50;;;2.30;;
60847;SDS011;46681;47.696;9.140;2023-07-31T16:45:57;3.97;;;2.00;;
60847;SDS011;46681;47.696;9.140;2023-07-31T16:48:48;3.37;;;2.13;;
60847;SDS011;46681;47.696;9.140;2023-07-31T16:51:52;2.40;;;2.20;;
60847;SDS011;46681;47.696;9.140;2023-07-31T16:54:37;2.33;;;2.13;;
60847;SDS011;46681;47.696;9.140;2023-07-31T16:57:44;3.03;;;2.50;;
60847;SDS011;46681;47.696;9.140;2023-07-31T17:00:48;2.23;;;2.03;;
60847;SDS011;46681;47.696;9.140;2023-07-31T17:03:18;3.90;;;2.00;;
60847;SDS011;46681;47.696;9.140;2023-07-31T17:05:49;3.47;;;2.20;;
60847;SDS011;46681;47.696;9.140;2023-07-31T17:09:02;3.80;;;2.20;;
60847;SDS011;46681;47.696;9.140;2023-07-31T17:11:44;5.30;;;2.47;;
60847;SDS011;46681;47.696;9.140;2023-07-31T17:14:29;3.07;;;2.50;;
60847;SDS011;46681;47.696;9.140;2023-07-31T17:20:29;3.07;;;2.63;;
60847;SDS011;46681;47.696;9.140;2023-07-31T17:23:37;3.07;;;2.20;;
60847;SDS011;46681;47.696;9.140;2023-07-31T17:29:47;4.30;;;3.10;;
60847;SDS011;46681;47.696;9.140;2023-07-31T17:32:37;3.07;;;2.57;;
60847;SDS011;46681;47.696;9.140;2023-07-31T17:35:23;2.10;;;2.00;;
60847;SDS011;46681;47.696;9.140;2023-07-31T17:37:53;2.40;;;2.20;;
60847;SDS011;46681;47.696;9.140;2023-07-31T17:40:23;3.43;;;2.30;;
60847;SDS011;46681;47.696;9.140;2023-07-31T17:46:01;4.20;;;2.43;;
60847;SDS011;46681;47.696;9.140;2023-07-31T17:51:26;3.43;;;2.50;;
60847;SDS011;46681;47.696;9.140;2023-07-31T17:57:07;3.47;;;2.43;;
60847;SDS011;46681;47.696;9.140;2023-07-31T17:59:35;2.27;;;2.07;;
60847;SDS011;46681;47.696;9.140;2023-07-31T18:02:12;2.93;;;2.43;;
60847;SDS011;46681;47.696;9.140;2023-07-31T18:04:38;2.20;;;2.00;;
60847;SDS011;46681;47.696;9.140;2023-07-31T18:13:45;3.20;;;2.00;;
60847;SDS011;46681;47.696;9.140;2023-07-31T18:16:35;2.30;;;2.17;;
60847;SDS011;46681;47.696;9.140;2023-07-31T18:25:03;2.33;;;2.13;;
60847;SDS011;46681;47.696;9.140;2023-07-31T18:27:40;3.90;;;2.13;;
60847;SDS011;46681;47.696;9.140;2023-07-31T18:33:10;3.23;;;2.30;;
60847;SDS011;46681;47.696;9.140;2023-07-31T18:35:42;3.17;;;1.93;;
60847;SDS011;46681;47.696;9.140;2023-07-31T18:38:08;2.47;;;2.23;;
60847;SDS011;46681;47.696;9.140;2023-07-31T18:43:26;2.47;;;2.27;;
60847;SDS011;46681;47.696;9.140;2023-07-31T18:45:52;4.53;;;3.07;;
60847;SDS011;46681;47.696;9.140;2023-07-31T18:54:14;3.17;;;2.80;;
60847;SDS011;46681;47.696;9.140;2023-07-31T18:56:46;4.40;;;2.70;;
60847;SDS011;46681;47.696;9.140;2023-07-31T18:59:24;2.87;;;2.57;;
60847;SDS011;46681;47.696;9.140;2023-07-31T19:01:50;6.60;;;3.10;;
60847;SDS011;46681;47.696;9.140;2023-07-31T19:04:17;4.03;;;2.53;;
60847;SDS011;46681;47.696;9.140;2023-07-31T19:06:56;4.33;;;2.90;;
60847;SDS011;46681;47.696;9.140;2023-07-31T19:09:33;3.83;;;2.87;;
60847;SDS011;46681;47.696;9.140;2023-07-31T19:12:04;4.30;;;2.80;;
60847;SDS011;46681;47.696;9.140;2023-07-31T19:14:41;4.43;;;2.77;;
60847;SDS011;46681;47.696;9.140;2023-07-31T19:17:25;3.20;;;2.50;;
60847;SDS011;46681;47.696;9.140;2023-07-31T19:19:53;4.70;;;2.67;;
60847;SDS011;46681;47.696;9.140;2023-07-31T19:22:18;3.47;;;2.70;;
60847;SDS011;46681;47.696;9.140;2023-07-31T19:25:12;2.97;;;2.77;;
60847;SDS011;46681;47.696;9.140;2023-07-31T19:28:00;3.53;;;2.67;;
60847;SDS011;46681;47.696;9.140;2023-07-31T19:30:56;2.70;;;2.50;;
60847;SDS011;46681;47.696;9.140;2023-07-31T19:33:49;3.37;;;2.87;;
60847;SDS011;46681;47.696;9.140;2023-07-31T19:36:24;2.80;;;2.43;;
60847;SDS011;46681;47.696;9.140;2023-07-31T19:38:55;3.13;;;2.27;;
60847;SDS011;46681;47.696;9.140;2023-07-31T19:41:22;2.80;;;2.60;;
60847;SDS011;46681;47.696;9.140;2023-07-31T19:43:52;3.83;;;2.47;;
60847;SDS011;46681;47.696;9.140;2023-07-31T19:46:18;3.00;;;2.60;;
60847;SDS011;46681;47.696;9.140;2023-07-31T19:48:54;3.37;;;2.30;;
60847;SDS011;46681;47.696;9.140;2023-07-31T19:51:31;2.80;;;2.43;;
60847;SDS011;46681;47.696;9.140;2023-07-31T19:53:56;3.40;;;2.33;;
60847;SDS011;46681;47.696;9.140;2023-07-31T19:56:30;3.10;;;2.80;;
60847;SDS011;46681;47.696;9.140;2023-07-31T19:58:59;3.03;;;2.27;;
60847;SDS011;46681;47.696;9.140;2023-07-31T20:01:29;2.43;;;2.20;;
60847;SDS011;46681;47.696;9.140;2023-07-31T20:03:59;2.53;;;2.20;;
60847;SDS011;46681;47.696;9.140;2023-07-31T20:06:29;3.00;;;2.40;;
60847;SDS011;46681;47.696;9.140;2023-07-31T20:08:57;2.73;;;2.50;;
60847;SDS011;46681;47.696;9.140;2023-07-31T20:11:25;3.10;;;2.53;;
60847;SDS011;46681;47.696;9.140;2023-07-31T20:13:55;3.17;;;2.43;;
60847;SDS011;46681;47.696;9.140;2023-07-31T20:16:23;4.83;;;2.33;;
60847;SDS011;46681;47.696;9.140;2023-07-31T20:19:07;3.27;;;2.70;;
60847;SDS011;46681;47.696;9.140;2023-07-31T20:21:36;3.10;;;2.30;;
60847;SDS011;46681;47.696;9.140;2023-07-31T20:24:09;3.57;;;2.63;;
60847;SDS011;46681;47.696;9.140;2023-07-31T20:26:35;3.67;;;2.50;;
60847;SDS011;46681;47.696;9.140;2023-07-31T20:29:01;2.83;;;2.53;;
60847;SDS011;46681;47.696;9.140;2023-07-31T20:31:30;2.40;;;2.20;;
60847;SDS011;46681;47.696;9.140;2023-07-31T20:33:58;2.87;;;2.50;;
60847;SDS011;46681;47.696;9.140;2023-07-31T20:36:29;4.03;;;2.40;;
60847;SDS011;46681;47.696;9.140;2023-07-31T20:38:55;2.50;;;2.30;;
60847;SDS011;46681;47.696;9.140;2023-07-31T20:41:20;2.47;;;2.27;;
60847;SDS011;46681;47.696;9.140;2023-07-31T20:43:46;3.37;;;2.33;;
60847;SDS011;46681;47.696;9.140;2023-07-31T20:46:17;2.60;;;2.40;;
60847;SDS011;46681;47.696;9.140;2023-07-31T20:48:48;3.23;;;2.50;;
60847;SDS011;46681;47.696;9.140;2023-07-31T20:51:16;3.10;;;2.63;;
60847;SDS011;46681;47.696;9.140;2023-07-31T20:53:44;2.73;;;2.37;;
60847;SDS011;46681;47.696;9.140;2023-07-31T20:56:16;2.47;;;2.00;;
60847;SDS011;46681;47.696;9.140;2023-07-31T20:58:43;5.07;;;2.73;;
60847;SDS011;46681;47.696;9.140;2023-07-31T21:01:20;2.43;;;2.23;;
60847;SDS011;46681;47.696;9.140;2023-07-31T21:03:49;2.57;;;2.30;;
60847;SDS011;46681;47.696;9.140;2023-07-31T21:06:15;3.00;;;2.70;;
60847;SDS011;46681;47.696;9.140;2023-07-31T21:08:43;2.50;;;2.10;;
60847;SDS011;46681;47.696;9.140;2023-07-31T21:11:10;1.93;;;1.83;;
60847;SDS011;46681;47.696;9.140;2023-07-31T21:13:37;2.30;;;2.10;;
60847;SDS011;46681;47.696;9.140;2023-07-31T21:16:03;2.50;;;2.13;;
60847;SDS011;46681;47.696;9.140;2023-07-31T21:18:28;2.30;;;2.10;;
60847;SDS011;46681;47.696;9.140;2023-07-31T21:20:54;3.20;;;2.43;;
60847;SDS011;46681;47.696;9.140;2023-07-31T21:23:20;2.50;;;2.30;;
60847;SDS011;46681;47.696;9.140;2023-07-31T21:25:52;2.53;;;2.33;;
60847;SDS011;46681;47.696;9.140;2023-07-31T21:28:19;2.50;;;2.13;;
60847;SDS011;46681;47.696;9.140;2023-07-31T21:30:45;2.33;;;2.17;;
60847;SDS011;46681;47.696;9.140;2023-07-31T21:33:35;2.63;;;2.10;;
60847;SDS011;46681;47.696;9.140;2023-07-31T21:36:00;2.53;;;2.23;;
60847;SDS011;46681;47.696;9.140;2023-07-31T21:38:26;3.07;;;2.30;;
60847;SDS011;46681;47.696;9.140;2023-07-31T21:40:51;2.43;;;2.03;;
60847;SDS011;46681;47.696;9.140;2023-07-31T21:43:19;2.57;;;2.37;;
60847;SDS011;46681;47.696;9.140;2023-07-31T21:45:49;2.40;;;2.20;;
60847;SDS011;46681;47.696;9.140;2023-07-31T21:48:15;2.53;;;1.97;;
60847;SDS011;46681;47.696;9.140;2023-07-31T21:50:44;3.43;;;2.30;;
60847;SDS011;46681;47.696;9.140;2023-07-31T21:53:12;3.07;;;2.27;;
60847;SDS011;46681;47.696;9.140;2023-07-31T21:55:39;2.93;;;2.67;;
60847;SDS011;46681;47.696;9.140;2023-07-31T21:58:10;2.30;;;2.10;;
60847;SDS011;46681;47.696;9.140;2023-07-31T22:00:37;2.60;;;2.13;;
60847;SDS011;46681;47.696;9.140;2023-07-31T22:03:02;3.77;;;2.50;;
60847;SDS011;46681;47.696;9.140;2023-07-31T22:05:28;2.80;;;2.57;;
60847;SDS011;46681;47.696;9.140;2023-07-31T22:07:55;2.53;;;2.33;;
60847;SDS011;46681;47.696;9.140;2023-07-31T22:10:20;2.60;;;2.40;;
60847;SDS011;46681;47.696;9.140;2023-07-31T22:12:46;2.37;;;2.17;;
60847;SDS011;46681;47.696;9.140;2023-07-31T22:15:11;2.30;;;2.10;;
60847;SDS011;46681;47.696;9.140;2023-07-31T22:17:37;3.20;;;2.53;;
60847;SDS011;46681;47.696;9.140;2023-07-31T22:20:02;2.67;;;2.40;;
60847;SDS011;46681;47.696;9.140;2023-07-31T22:22:28;2.47;;;2.27;;
60847;SDS011;46681;47.696;9.140;2023-07-31T22:24:54;2.70;;;2.50;;
60847;SDS011;46681;47.696;9.140;2023-07-31T22:27:19;2.23;;;2.03;;
60847;SDS011;46681;47.696;9.140;2023-07-31T22:29:49;2.23;;;2.03;;
60847;SDS011;46681;47.696;9.140;2023-07-31T22:32:14;3.33;;;2.33;;
60847;SDS011;46681;47.696;9.140;2023-07-31T22:34:43;4.20;;;2.47;;
60847;SDS011;46681;47.696;9.140;2023-07-31T22:37:10;2.37;;;2.17;;
60847;SDS011;46681;47.696;9.140;2023-07-31T22:39:43;2.43;;;2.23;;
60847;SDS011;46681;47.696;9.140;2023-07-31T22:42:16;3.30;;;2.67;;
60847;SDS011;46681;47.696;9.140;2023-07-31T22:44:49;2.57;;;2.37;;
60847;SDS011;46681;47.696;9.140;2023-07-31T22:47:14;3.57;;;2.37;;
60847;SDS011;46681;47.696;9.140;2023-07-31T22:49:43;2.33;;;2.23;;
60847;SDS011;46681;47.696;9.140;2023-07-31T22:52:15;2.57;;;2.37;;